Agia Marina — SX5375 — position and weather

sailwx.info

Track history (hours):
 
Tides and Currents Weather Stations Pressure Air Temp Water Temp Dewpoint Dewpoint Depression Visibility Wind Speed Wind Dir Waves Ship Positions

Agia Marina

Last reported at 2017-Mar-25 01:33 UTC. Time now 2017-Mar-25 01:57 UTC.
Position N 38°02' E 023°36'.

Length 59 m; draft 2.5 m.

Type: Cargo ship. MMSI: 237042500.

Date/timePositionNaut miles runAvg speedWind from/ knotsBaromVisibWave heightAir tempDewpointWater temp
2017-Mar-25 01:33N 38°02' E 023°36'0 0.0
2017-Mar-25 00:33N 38°02' E 023°36'0 0.0
2017-Mar-24 23:33N 38°02' E 023°36'0 0.0
2017-Mar-24 22:33N 38°02' E 023°36'0 0.0
2017-Mar-24 21:33N 38°02' E 023°36'0 0.0
2017-Mar-24 20:33N 38°02' E 023°36'0 0.0
2017-Mar-24 19:33N 38°02' E 023°36'0 0.0
2017-Mar-24 18:33N 38°02' E 023°36'0 0.0
2017-Mar-24 17:33N 38°02' E 023°36'0 0.0
2017-Mar-24 16:33N 38°02' E 023°36'0 0.0
2017-Mar-24 15:33N 38°02' E 023°36'0 0.0
2017-Mar-24 14:33N 38°02' E 023°36'0 0.0
2017-Mar-24 13:33N 38°02' E 023°36'0 0.0
2017-Mar-24 12:33N 38°02' E 023°36'0 0.0
2017-Mar-24 11:33N 38°02' E 023°36'0 0.0
2017-Mar-24 10:33N 38°02' E 023°36'0 0.0
2017-Mar-24 09:33N 38°02' E 023°36'0 0.0
2017-Mar-24 08:33N 38°02' E 023°36'0 0.0
2017-Mar-24 07:33N 38°02' E 023°36'0 0.0
2017-Mar-24 06:33N 38°02' E 023°36'0 0.0
2017-Mar-24 05:33N 38°02' E 023°36'0 0.0
2017-Mar-24 04:33N 38°02' E 023°36'0 0.0
2017-Mar-24 03:33N 38°02' E 023°36'0 0.0
2017-Mar-24 02:33N 38°02' E 023°36'0 0.0
2017-Mar-24 01:33N 38°02' E 023°36'0 0.0
2017-Mar-24 00:33N 38°02' E 023°36'0 0.0
2017-Mar-23 23:33N 38°02' E 023°36'0 0.0
2017-Mar-23 22:33N 38°02' E 023°36'0 0.0
2017-Mar-23 21:33N 38°02' E 023°36'0 0.0
2017-Mar-23 20:33N 38°02' E 023°36'0 0.0
2017-Mar-23 19:33N 38°02' E 023°36'0 0.0
2017-Mar-23 18:33N 38°02' E 023°36'0 0.0
2017-Mar-23 17:33N 38°02' E 023°36'0 0.0
2017-Mar-23 16:33N 38°02' E 023°36'0 0.0
2017-Mar-23 15:33N 38°02' E 023°36'0 0.0
2017-Mar-23 14:33N 38°02' E 023°36'0 0.0
2017-Mar-23 13:33N 38°02' E 023°36'0 0.0
2017-Mar-23 12:33N 38°02' E 023°36'0 0.0
2017-Mar-23 11:33N 38°02' E 023°36'0 0.0
2017-Mar-23 10:33N 38°02' E 023°36'0 0.0
2017-Mar-23 09:33N 38°02' E 023°36'0 0.0
2017-Mar-23 08:33N 38°02' E 023°36'0 0.0
2017-Mar-23 07:33N 38°02' E 023°36'0 0.0
2017-Mar-23 06:33N 38°02' E 023°36'0 0.0
2017-Mar-23 05:33N 38°02' E 023°36'0 0.0
2017-Mar-23 04:33N 38°02' E 023°36'0 0.0
2017-Mar-23 03:33N 38°02' E 023°36'0 0.0
2017-Mar-23 02:33N 38°02' E 023°36'0 0.0
2017-Mar-23 01:33N 38°02' E 023°36'0 0.0
2017-Mar-23 00:33N 38°02' E 023°36'0 0.0
2017-Mar-22 23:33N 38°02' E 023°36'0 0.0
2017-Mar-22 22:33N 38°02' E 023°36'0 0.0
2017-Mar-22 21:33N 38°02' E 023°36'0 0.0
2017-Mar-22 20:33N 38°02' E 023°36'0 0.0
2017-Mar-22 19:33N 38°02' E 023°36'0 0.0
2017-Mar-22 18:33N 38°02' E 023°36'0 0.0
2017-Mar-22 17:33N 38°02' E 023°36'0 0.0
2017-Mar-22 16:33N 38°02' E 023°36'0 0.0
2017-Mar-22 15:33N 38°02' E 023°36'0 0.0
2017-Mar-22 14:33N 38°02' E 023°36'0 0.0
2017-Mar-22 13:33N 38°02' E 023°36'3 2.9
2017-Mar-22 12:33N 38°01' E 023°32'6 5.8
2017-Mar-22 11:33N 37°58' E 023°25'6 6.2
2017-Mar-22 10:33N 37°52' E 023°24'7 6.7
2017-Mar-22 09:33N 37°46' E 023°25'5 0.4
2017-Mar-21 21:13N 37°41' E 023°25'80 2.2
2017-Mar-20 09:33N 37°31' E 025°05'4 3.9
2017-Mar-20 08:33N 37°32' E 025°10'0 0.0
2017-Mar-20 07:33N 37°32' E 025°10'0 0.0
2017-Mar-20 06:33N 37°32' E 025°10'0 0.0
2017-Mar-20 05:33N 37°32' E 025°10'0 0.1
2017-Mar-20 04:32N 37°32' E 025°10'0 0.0
2017-Mar-20 03:31N 37°32' E 025°10'0 0.0
2017-Mar-20 02:32N 37°32' E 025°10'0 0.0
2017-Mar-20 01:33N 37°32' E 025°10'0 0.0
2017-Mar-20 00:33N 37°32' E 025°10'0 0.0
2017-Mar-19 23:33N 37°32' E 025°10'0 0.0
2017-Mar-19 22:33N 37°32' E 025°10'0 0.0
2017-Mar-19 21:33N 37°32' E 025°10'0 0.0
2017-Mar-19 20:33N 37°32' E 025°10'0 0.0
2017-Mar-19 19:33N 37°32' E 025°10'1 1.0
2017-Mar-19 18:33N 37°32' E 025°09'7 6.5
2017-Mar-19 17:33N 37°26' E 025°11'7 6.6
2017-Mar-19 16:33N 37°19' E 025°14'7 6.7
2017-Mar-19 15:33N 37°14' E 025°18'7 6.6
2017-Mar-19 14:33N 37°08' E 025°21'1 1.5
2017-Mar-19 13:33N 37°06' E 025°22'0 0.0
2017-Mar-19 12:33N 37°06' E 025°22'6 5.5
2017-Mar-19 11:33N 37°10' E 025°17'10 0.8
2017-Mar-18 22:25N 37°04' E 025°06'  
Track history (hours):
 
Tides and Currents Weather Stations Pressure Air Temp Water Temp Dewpoint Dewpoint Depression Visibility Wind Speed Wind Dir Waves Ship Positions

Agia Marina

Last reported at 2017-Mar-25 01:33 UTC. Time now 2017-Mar-25 01:57 UTC.
Position N 38°02' E 023°36'.

Length 59 m; draft 2.5 m.

Type: Cargo ship. MMSI: 237042500.

Date/timePositionNaut miles runAvg speedWind from/ knotsBaromVisibWave heightAir tempDewpointWater temp
2017-Mar-25 01:33N 38°02' E 023°36'0 0.0
2017-Mar-25 00:33N 38°02' E 023°36'0 0.0
2017-Mar-24 23:33N 38°02' E 023°36'0 0.0
2017-Mar-24 22:33N 38°02' E 023°36'0 0.0
2017-Mar-24 21:33N 38°02' E 023°36'0 0.0
2017-Mar-24 20:33N 38°02' E 023°36'0 0.0
2017-Mar-24 19:33N 38°02' E 023°36'0 0.0
2017-Mar-24 18:33N 38°02' E 023°36'0 0.0
2017-Mar-24 17:33N 38°02' E 023°36'0 0.0
2017-Mar-24 16:33N 38°02' E 023°36'0 0.0
2017-Mar-24 15:33N 38°02' E 023°36'0 0.0
2017-Mar-24 14:33N 38°02' E 023°36'0 0.0
2017-Mar-24 13:33N 38°02' E 023°36'0 0.0
2017-Mar-24 12:33N 38°02' E 023°36'0 0.0
2017-Mar-24 11:33N 38°02' E 023°36'0 0.0
2017-Mar-24 10:33N 38°02' E 023°36'0 0.0
2017-Mar-24 09:33N 38°02' E 023°36'0 0.0
2017-Mar-24 08:33N 38°02' E 023°36'0 0.0
2017-Mar-24 07:33N 38°02' E 023°36'0 0.0
2017-Mar-24 06:33N 38°02' E 023°36'0 0.0
2017-Mar-24 05:33N 38°02' E 023°36'0 0.0
2017-Mar-24 04:33N 38°02' E 023°36'0 0.0
2017-Mar-24 03:33N 38°02' E 023°36'0 0.0
2017-Mar-24 02:33N 38°02' E 023°36'0 0.0
2017-Mar-24 01:33N 38°02' E 023°36'0 0.0
2017-Mar-24 00:33N 38°02' E 023°36'0 0.0
2017-Mar-23 23:33N 38°02' E 023°36'0 0.0
2017-Mar-23 22:33N 38°02' E 023°36'0 0.0
2017-Mar-23 21:33N 38°02' E 023°36'0 0.0
2017-Mar-23 20:33N 38°02' E 023°36'0 0.0
2017-Mar-23 19:33N 38°02' E 023°36'0 0.0
2017-Mar-23 18:33N 38°02' E 023°36'0 0.0
2017-Mar-23 17:33N 38°02' E 023°36'0 0.0
2017-Mar-23 16:33N 38°02' E 023°36'0 0.0
2017-Mar-23 15:33N 38°02' E 023°36'0 0.0
2017-Mar-23 14:33N 38°02' E 023°36'0 0.0
2017-Mar-23 13:33N 38°02' E 023°36'0 0.0
2017-Mar-23 12:33N 38°02' E 023°36'0 0.0
2017-Mar-23 11:33N 38°02' E 023°36'0 0.0
2017-Mar-23 10:33N 38°02' E 023°36'0 0.0
2017-Mar-23 09:33N 38°02' E 023°36'0 0.0
2017-Mar-23 08:33N 38°02' E 023°36'0 0.0
2017-Mar-23 07:33N 38°02' E 023°36'0 0.0
2017-Mar-23 06:33N 38°02' E 023°36'0 0.0
2017-Mar-23 05:33N 38°02' E 023°36'0 0.0
2017-Mar-23 04:33N 38°02' E 023°36'0 0.0
2017-Mar-23 03:33N 38°02' E 023°36'0 0.0
2017-Mar-23 02:33N 38°02' E 023°36'0 0.0
2017-Mar-23 01:33N 38°02' E 023°36'0 0.0
2017-Mar-23 00:33N 38°02' E 023°36'0 0.0
2017-Mar-22 23:33N 38°02' E 023°36'0 0.0
2017-Mar-22 22:33N 38°02' E 023°36'0 0.0
2017-Mar-22 21:33N 38°02' E 023°36'0 0.0
2017-Mar-22 20:33N 38°02' E 023°36'0 0.0
2017-Mar-22 19:33N 38°02' E 023°36'0 0.0
2017-Mar-22 18:33N 38°02' E 023°36'0 0.0
2017-Mar-22 17:33N 38°02' E 023°36'0 0.0
2017-Mar-22 16:33N 38°02' E 023°36'0 0.0
2017-Mar-22 15:33N 38°02' E 023°36'0 0.0
2017-Mar-22 14:33N 38°02' E 023°36'0 0.0
2017-Mar-22 13:33N 38°02' E 023°36'3 2.9
2017-Mar-22 12:33N 38°01' E 023°32'6 5.8
2017-Mar-22 11:33N 37°58' E 023°25'6 6.2
2017-Mar-22 10:33N 37°52' E 023°24'7 6.7
2017-Mar-22 09:33N 37°46' E 023°25'5 0.4
2017-Mar-21 21:13N 37°41' E 023°25'80 2.2
2017-Mar-20 09:33N 37°31' E 025°05'4 3.9
2017-Mar-20 08:33N 37°32' E 025°10'0 0.0
2017-Mar-20 07:33N 37°32' E 025°10'0 0.0
2017-Mar-20 06:33N 37°32' E 025°10'0 0.0
2017-Mar-20 05:33N 37°32' E 025°10'0 0.1
2017-Mar-20 04:32N 37°32' E 025°10'0 0.0
2017-Mar-20 03:31N 37°32' E 025°10'0 0.0
2017-Mar-20 02:32N 37°32' E 025°10'0 0.0
2017-Mar-20 01:33N 37°32' E 025°10'0 0.0
2017-Mar-20 00:33N 37°32' E 025°10'0 0.0
2017-Mar-19 23:33N 37°32' E 025°10'0 0.0
2017-Mar-19 22:33N 37°32' E 025°10'0 0.0
2017-Mar-19 21:33N 37°32' E 025°10'0 0.0
2017-Mar-19 20:33N 37°32' E 025°10'0 0.0
2017-Mar-19 19:33N 37°32' E 025°10'1 1.0
2017-Mar-19 18:33N 37°32' E 025°09'7 6.5
2017-Mar-19 17:33N 37°26' E 025°11'7 6.6
2017-Mar-19 16:33N 37°19' E 025°14'7 6.7
2017-Mar-19 15:33N 37°14' E 025°18'7 6.6
2017-Mar-19 14:33N 37°08' E 025°21'1 1.5
2017-Mar-19 13:33N 37°06' E 025°22'0 0.0
2017-Mar-19 12:33N 37°06' E 025°22'6 5.5
2017-Mar-19 11:33N 37°10' E 025°17'10 0.8
2017-Mar-18 22:25N 37°04' E 025°06'  

Dump ship's entire track history